createdAt,value
2023-05-21T00:01:38.049Z,12.27
2023-05-21T00:03:42.550Z,12.93
2023-05-21T00:05:47.395Z,12.75
2023-05-21T00:07:53.667Z,12.85
2023-05-21T00:09:58.076Z,12.40
2023-05-21T00:12:01.358Z,13.05
2023-05-21T00:14:04.373Z,13.02
2023-05-21T00:16:08.224Z,13.13
2023-05-21T00:18:11.416Z,12.55
2023-05-21T00:20:14.583Z,12.85
2023-05-21T00:22:17.555Z,12.77
2023-05-21T00:24:20.807Z,12.77
2023-05-21T00:26:25.559Z,12.43
2023-05-21T00:28:33.108Z,12.73
2023-05-21T00:30:36.164Z,12.65
2023-05-21T00:32:39.235Z,12.23
2023-05-21T00:34:42.614Z,12.10
2023-05-21T00:36:46.083Z,13.27
2023-05-21T00:38:49.094Z,12.75
2023-05-21T00:40:52.349Z,11.85
2023-05-21T00:42:57.692Z,13.35
2023-05-21T00:45:00.994Z,11.98
2023-05-21T00:47:05.071Z,12.30
2023-05-21T00:49:08.500Z,11.60
2023-05-21T00:51:11.632Z,11.98
2023-05-21T00:53:15.736Z,12.32
2023-05-21T00:55:18.676Z,12.77
2023-05-21T00:57:23.775Z,12.70
2023-05-21T00:59:28.442Z,12.95
2023-05-21T01:01:34.277Z,12.90
2023-05-21T01:03:38.979Z,12.73
2023-05-21T01:05:45.667Z,12.02
2023-05-21T01:07:49.252Z,12.98
2023-05-21T01:09:52.722Z,12.38
2023-05-21T01:11:56.772Z,12.77
2023-05-21T01:13:59.973Z,12.90
2023-05-21T01:16:07.213Z,12.82
2023-05-21T01:18:10.433Z,12.98
2023-05-21T01:20:14.901Z,12.57
2023-05-21T01:22:21.693Z,12.25
2023-05-21T01:24:26.250Z,12.07
2023-05-21T01:26:30.743Z,12.27
2023-05-21T01:28:34.969Z,12.25
2023-05-21T01:30:39.881Z,12.15
2023-05-21T01:32:50.071Z,12.18
2023-05-21T01:35:00.839Z,11.90
2023-05-21T01:37:13.552Z,11.90
2023-05-21T01:39:21.544Z,12.32
2023-05-21T01:41:27.995Z,11.55
2023-05-21T01:43:34.551Z,11.85
2023-05-21T01:45:40.139Z,11.88
2023-05-21T01:47:45.697Z,13.05
2023-05-21T01:51:51.971Z,11.55
2023-05-21T01:53:54.983Z,12.30
2023-05-21T01:55:58.014Z,11.45
2023-05-21T01:58:02.723Z,11.98
2023-05-21T02:00:08.636Z,11.85
2023-05-21T02:02:18.296Z,12.05
2023-05-21T02:04:21.523Z,11.73
2023-05-21T02:06:24.819Z,11.70
2023-05-21T02:08:28.217Z,12.13
2023-05-21T02:10:31.175Z,11.60
2023-05-21T02:12:34.315Z,11.48
2023-05-21T02:14:39.200Z,11.90
2023-05-21T02:16:42.618Z,12.30
2023-05-21T02:18:46.771Z,12.48
2023-05-21T02:20:49.952Z,11.40
2023-05-21T02:22:53.016Z,11.50
2023-05-21T02:24:55.997Z,12.38
2023-05-21T02:26:59.101Z,12.35
2023-05-21T02:29:02.227Z,11.65
2023-05-21T02:31:06.644Z,10.98
2023-05-21T02:33:09.971Z,11.13
2023-05-21T02:35:13.786Z,11.75
2023-05-21T02:37:17.960Z,11.88
2023-05-21T02:39:21.418Z,12.07
2023-05-21T02:41:24.388Z,11.80
2023-05-21T02:43:27.506Z,12.88
2023-05-21T02:45:30.890Z,11.77
2023-05-21T02:47:35.731Z,10.82
2023-05-21T02:49:38.945Z,11.93
2023-05-21T02:51:41.897Z,11.25
2023-05-21T02:53:44.935Z,11.48
2023-05-21T02:55:47.986Z,11.02
2023-05-21T02:57:50.962Z,12.27
2023-05-21T02:59:53.973Z,12.25
2023-05-21T03:01:57.063Z,12.25
2023-05-21T03:04:02.197Z,11.63
2023-05-21T03:06:05.343Z,12.50
2023-05-21T03:08:08.300Z,11.43
2023-05-21T03:10:11.880Z,11.63
2023-05-21T03:12:14.920Z,12.25
2023-05-21T03:14:18.016Z,12.23
2023-05-21T03:16:20.992Z,11.88
2023-05-21T03:18:23.954Z,11.73
2023-05-21T03:20:29.250Z,11.80
2023-05-21T03:22:32.824Z,11.88
2023-05-21T03:24:37.076Z,11.45
2023-05-21T03:26:41.794Z,11.93
2023-05-21T03:28:45.263Z,10.70
2023-05-21T03:30:49.994Z,11.18
2023-05-21T03:33:11.607Z,10.70
2023-05-21T03:35:15.477Z,10.88
2023-05-21T03:37:19.908Z,10.90
2023-05-21T03:39:23.479Z,10.95
2023-05-21T03:41:26.807Z,11.32
2023-05-21T03:43:36.169Z,11.20
2023-05-21T03:45:40.374Z,11.43
2023-05-21T03:48:07.688Z,11.98
2023-05-21T03:50:11.636Z,12.10
2023-05-21T03:52:15.205Z,10.98
2023-05-21T03:54:19.584Z,12.30
2023-05-21T03:58:27.158Z,12.45
2023-05-21T04:00:32.923Z,15.82
2023-05-21T04:02:36.208Z,16.20
2023-05-21T04:04:39.315Z,16.88
2023-05-21T04:06:44.864Z,17.95
2023-05-21T04:08:48.885Z,17.00
2023-05-21T04:10:53.300Z,19.05
2023-05-21T04:12:56.300Z,21.92
2023-05-21T04:14:59.178Z,21.58
2023-05-21T04:17:05.575Z,19.05
2023-05-21T04:19:09.547Z,18.77
2023-05-21T04:21:13.374Z,17.65
2023-05-21T04:23:16.707Z,20.02
2023-05-21T04:25:23.494Z,20.98
2023-05-21T04:27:28.242Z,16.65
2023-05-21T04:29:31.365Z,16.83
2023-05-21T04:31:34.703Z,16.92
2023-05-21T04:33:42.426Z,15.45
2023-05-21T04:35:46.677Z,18.63
2023-05-21T04:37:50.836Z,16.30
2023-05-21T04:39:53.916Z,16.45
2023-05-21T04:41:57.013Z,15.32
2023-05-21T04:44:02.739Z,15.18
2023-05-21T04:46:07.987Z,16.60
2023-05-21T04:48:10.984Z,17.50
2023-05-21T04:50:14.642Z,17.73
2023-05-21T04:52:17.834Z,17.48
2023-05-21T04:54:20.936Z,17.10
2023-05-21T04:56:24.119Z,18.10
2023-05-21T04:58:28.216Z,17.50
2023-05-21T05:00:32.991Z,16.50
2023-05-21T05:02:36.480Z,16.55
2023-05-21T05:04:39.439Z,16.75
2023-05-21T05:06:42.466Z,17.13
2023-05-21T05:08:46.616Z,16.65
2023-05-21T05:10:51.403Z,16.38
2023-05-21T05:12:54.561Z,17.40
2023-05-21T05:14:57.782Z,17.08
2023-05-21T05:17:02.400Z,15.02
2023-05-21T05:19:05.442Z,14.05
2023-05-21T05:21:08.395Z,14.25
2023-05-21T05:23:11.527Z,14.48
2023-05-21T05:25:15.909Z,14.20
2023-05-21T05:27:19.060Z,14.30
2023-05-21T05:29:22.100Z,12.70
2023-05-21T05:31:25.372Z,13.75
2023-05-21T05:33:30.883Z,12.65
2023-05-21T05:35:34.197Z,13.73
2023-05-21T05:37:37.590Z,13.10
2023-05-21T05:39:42.013Z,12.20
2023-05-21T05:41:45.050Z,10.73
2023-05-21T05:43:48.357Z,11.93
2023-05-21T05:45:52.838Z,11.52
2023-05-21T05:47:56.022Z,11.43
2023-05-21T05:50:00.585Z,10.85
2023-05-21T05:52:03.746Z,12.02
2023-05-21T05:54:06.971Z,11.38
2023-05-21T05:56:11.738Z,12.40
2023-05-21T05:58:15.289Z,10.85
2023-05-21T06:00:27.246Z,9.48
2023-05-21T06:02:30.587Z,11.15
2023-05-21T06:04:33.837Z,10.45
2023-05-21T06:06:39.292Z,10.88
2023-05-21T06:10:44.795Z,10.95
2023-05-21T06:12:48.254Z,10.00
2023-05-21T06:14:51.716Z,9.75
2023-05-21T06:16:56.465Z,10.57
2023-05-21T06:19:00.042Z,10.10
2023-05-21T06:21:03.084Z,10.43
2023-05-21T06:23:09.205Z,10.40
2023-05-21T06:25:12.902Z,9.70
2023-05-21T06:27:16.296Z,9.38
2023-05-21T06:29:20.202Z,8.55
2023-05-21T06:31:23.694Z,9.80
2023-05-21T06:33:27.936Z,9.60
2023-05-21T06:35:31.198Z,9.90
2023-05-21T06:37:35.280Z,10.18
2023-05-21T06:39:39.976Z,10.15
2023-05-21T06:41:42.948Z,10.00
2023-05-21T06:44:15.995Z,9.50
2023-05-21T06:46:45.319Z,8.35
2023-05-21T06:48:48.293Z,9.23
2023-05-21T06:50:51.758Z,8.80
2023-05-21T06:52:54.726Z,9.68
2023-05-21T06:54:59.286Z,9.50
2023-05-21T06:57:06.356Z,9.40
2023-05-21T06:59:09.415Z,8.80
2023-05-21T07:01:13.570Z,8.80
2023-05-21T07:03:17.724Z,8.95
2023-05-21T07:05:21.177Z,8.95
2023-05-21T07:07:24.233Z,9.23
2023-05-21T07:09:27.397Z,9.13
2023-05-21T07:11:31.963Z,10.60
2023-05-21T07:13:36.473Z,9.35
2023-05-21T07:15:39.671Z,9.38
2023-05-21T07:17:42.988Z,9.27
2023-05-21T07:19:46.037Z,8.50
2023-05-21T07:21:50.185Z,8.88
2023-05-21T07:23:53.464Z,9.55
2023-05-21T07:25:56.582Z,8.45
2023-05-21T07:28:01.314Z,9.23
2023-05-21T07:30:04.765Z,10.02
2023-05-21T07:32:08.654Z,9.38
2023-05-21T07:34:12.063Z,9.60
2023-05-21T07:36:16.814Z,9.25
2023-05-21T07:38:20.652Z,8.45
2023-05-21T07:40:23.943Z,9.73
2023-05-21T07:42:27.171Z,8.20
2023-05-21T07:44:33.820Z,9.20
2023-05-21T07:46:37.413Z,8.48
2023-05-21T07:48:40.615Z,9.30
2023-05-21T07:50:43.864Z,8.80
2023-05-21T07:52:46.988Z,8.95
2023-05-21T07:54:49.997Z,7.72
2023-05-21T07:56:53.259Z,8.23
2023-05-21T07:59:17.929Z,8.65
2023-05-21T08:01:22.763Z,8.10
2023-05-21T08:03:28.609Z,8.00
2023-05-21T08:05:32.866Z,8.63
2023-05-21T08:07:35.835Z,8.32
2023-05-21T08:09:38.890Z,8.38
2023-05-21T08:11:43.301Z,7.20
2023-05-21T08:13:46.442Z,8.73
2023-05-21T08:15:52.696Z,6.90
2023-05-21T08:17:58.833Z,8.48
2023-05-21T08:20:02.376Z,7.68
2023-05-21T08:22:06.996Z,7.70
2023-05-21T08:24:13.237Z,7.78
2023-05-21T08:26:19.266Z,7.80
2023-05-21T08:28:23.367Z,8.00
2023-05-21T08:30:27.975Z,7.68
2023-05-21T08:32:31.346Z,8.07
2023-05-21T08:34:36.115Z,7.63
2023-05-21T08:37:01.702Z,6.90
2023-05-21T08:39:27.407Z,6.43
2023-05-21T08:41:33.846Z,6.75
2023-05-21T08:43:38.728Z,7.00
2023-05-21T08:45:45.441Z,6.45
2023-05-21T08:47:55.262Z,5.72
2023-05-21T08:50:01.283Z,6.28
2023-05-21T08:52:06.574Z,6.45
2023-05-21T08:56:15.754Z,5.22
2023-05-21T08:58:25.387Z,6.28
2023-05-21T09:00:29.581Z,6.05
2023-05-21T09:02:34.765Z,5.90
2023-05-21T09:04:39.308Z,6.10
2023-05-21T09:06:44.405Z,6.20
2023-05-21T09:08:54.715Z,6.30
2023-05-21T09:11:05.652Z,5.65
2023-05-21T09:13:15.687Z,6.13
2023-05-21T09:15:19.150Z,5.97
2023-05-21T09:17:22.222Z,6.00
2023-05-21T09:19:35.140Z,5.68
2023-05-21T09:21:39.973Z,5.45
2023-05-21T09:24:04.955Z,5.78
2023-05-21T09:28:17.353Z,5.60
2023-05-21T09:30:24.059Z,6.30
2023-05-21T09:32:29.335Z,6.10
2023-05-21T09:34:36.576Z,5.80
2023-05-21T09:36:39.555Z,5.72
2023-05-21T09:38:42.514Z,5.70
2023-05-21T09:40:47.192Z,5.13
2023-05-21T09:42:53.341Z,4.47
2023-05-21T09:44:56.510Z,5.97
2023-05-21T09:47:00.205Z,4.68
2023-05-21T09:49:03.288Z,5.70
2023-05-21T09:51:11.410Z,5.47
2023-05-21T09:53:16.891Z,5.07
2023-05-21T09:55:22.985Z,5.20
2023-05-21T09:57:27.595Z,5.22
2023-05-21T09:59:37.401Z,5.10
2023-05-21T10:01:40.573Z,4.45
2023-05-21T10:03:49.913Z,5.65
2023-05-21T10:05:54.280Z,5.40
2023-05-21T10:08:01.197Z,5.20
2023-05-21T10:10:07.183Z,5.25
2023-05-21T10:12:11.256Z,5.47
2023-05-21T10:14:20.155Z,4.00
2023-05-21T10:16:24.255Z,5.15
2023-05-21T10:18:28.764Z,4.88
2023-05-21T10:20:32.327Z,4.90
2023-05-21T10:22:36.034Z,5.57
2023-05-21T10:24:41.034Z,4.70
2023-05-21T10:26:45.274Z,5.53
2023-05-21T10:28:49.244Z,4.80
2023-05-21T10:30:54.833Z,5.18
2023-05-21T10:32:58.987Z,4.70
2023-05-21T10:35:02.899Z,5.03
2023-05-21T10:37:09.803Z,4.68
2023-05-21T10:39:13.646Z,4.50
2023-05-21T10:41:19.575Z,4.75
2023-05-21T10:43:53.414Z,4.60
2023-05-21T10:46:29.452Z,4.40
2023-05-21T10:48:50.256Z,4.47
2023-05-21T10:51:13.853Z,5.05
2023-05-21T10:53:25.734Z,4.50
2023-05-21T10:55:43.451Z,4.15
2023-05-21T10:58:14.153Z,4.78
2023-05-21T11:00:20.930Z,4.72
2023-05-21T11:02:27.169Z,4.35
2023-05-21T11:04:30.336Z,4.30
2023-05-21T11:06:33.636Z,4.25
2023-05-21T11:08:37.899Z,4.07
2023-05-21T11:10:41.773Z,4.82
2023-05-21T11:13:06.533Z,4.35
2023-05-21T11:15:16.700Z,4.28
2023-05-21T11:17:39.335Z,4.35
2023-05-21T11:19:43.862Z,4.25
2023-05-21T11:21:51.697Z,4.32
2023-05-21T11:23:55.746Z,4.10
2023-05-21T11:26:02.564Z,4.22
2023-05-21T11:28:09.782Z,3.83
2023-05-21T11:30:16.703Z,3.60
2023-05-21T11:32:20.924Z,4.43
2023-05-21T11:34:29.004Z,4.15
2023-05-21T11:36:33.034Z,4.15
2023-05-21T11:38:38.487Z,3.70
2023-05-21T11:40:51.605Z,3.65
2023-05-21T11:42:56.315Z,3.60
2023-05-21T11:45:00.022Z,3.88
2023-05-21T11:47:03.636Z,4.10
2023-05-21T11:49:07.140Z,3.53
2023-05-21T11:51:11.791Z,3.80
2023-05-21T11:53:16.146Z,3.80
2023-05-21T11:55:23.015Z,4.00
2023-05-21T11:57:31.090Z,3.42
2023-05-21T11:59:34.794Z,3.53
2023-05-21T12:01:37.623Z,3.55
2023-05-21T12:03:41.397Z,3.55
2023-05-21T12:05:48.822Z,3.22
2023-05-21T12:07:54.931Z,3.35
2023-05-21T12:09:58.543Z,3.58
2023-05-21T12:12:02.496Z,3.08
2023-05-21T12:14:07.910Z,3.50
2023-05-21T12:16:11.242Z,4.05
2023-05-21T12:18:16.971Z,3.75
2023-05-21T12:20:20.347Z,3.60
2023-05-21T12:22:24.907Z,3.70
2023-05-21T12:24:29.645Z,3.40
2023-05-21T12:26:33.704Z,3.85
2023-05-21T12:28:37.666Z,3.60
2023-05-21T12:30:40.687Z,3.88
2023-05-21T12:32:46.979Z,3.65
2023-05-21T12:34:51.677Z,3.60
2023-05-21T12:36:54.747Z,3.97
2023-05-21T12:38:58.267Z,3.92
2023-05-21T12:41:06.487Z,3.80
2023-05-21T12:43:09.482Z,3.97
2023-05-21T12:45:13.202Z,4.13
2023-05-21T12:47:16.250Z,3.85
2023-05-21T12:49:32.804Z,4.00
2023-05-21T12:51:40.324Z,4.15
2023-05-21T12:53:43.968Z,3.97
2023-05-21T12:55:47.032Z,3.85
2023-05-21T12:58:00.465Z,4.50
2023-05-21T13:00:07.018Z,3.83
2023-05-21T13:02:13.660Z,4.13
2023-05-21T13:04:19.658Z,3.90
2023-05-21T13:06:22.888Z,4.00
2023-05-21T13:08:26.543Z,4.45
2023-05-21T13:10:30.202Z,4.13
2023-05-21T13:12:34.658Z,3.83
2023-05-21T13:14:39.696Z,4.00
2023-05-21T13:16:42.657Z,4.70
2023-05-21T13:18:45.760Z,4.10
2023-05-21T13:20:49.183Z,3.83
2023-05-21T13:22:52.604Z,4.50
2023-05-21T13:24:55.537Z,3.97
2023-05-21T13:26:58.584Z,3.78
2023-05-21T13:29:01.688Z,3.72
2023-05-21T13:31:06.375Z,4.13
2023-05-21T13:33:09.325Z,3.85
2023-05-21T13:35:12.617Z,4.10
2023-05-21T13:37:16.157Z,3.88
2023-05-21T13:39:19.676Z,4.35
2023-05-21T13:41:22.661Z,4.20
2023-05-21T13:43:25.801Z,4.20
2023-05-21T13:45:29.636Z,3.85
2023-05-21T13:47:36.183Z,3.80
2023-05-21T13:49:41.035Z,3.60
2023-05-21T13:51:43.998Z,3.55
2023-05-21T13:53:48.248Z,3.95
2023-05-21T13:55:51.237Z,3.90
2023-05-21T13:57:54.153Z,3.75
2023-05-21T13:59:57.472Z,3.90
2023-05-21T14:02:00.435Z,3.55
2023-05-21T14:04:06.030Z,3.45
2023-05-21T14:08:12.893Z,3.47
2023-05-21T14:10:16.086Z,3.47
2023-05-21T14:12:19.499Z,3.60
2023-05-21T14:14:22.955Z,3.53
2023-05-21T14:16:27.754Z,3.80
2023-05-21T14:18:30.736Z,4.00
2023-05-21T14:20:35.229Z,3.47
2023-05-21T14:22:38.903Z,3.90
2023-05-21T14:24:41.991Z,3.65
2023-05-21T14:26:44.852Z,3.50
2023-05-21T14:28:47.932Z,3.88
2023-05-21T14:30:50.895Z,3.70
2023-05-21T14:32:55.463Z,3.55
2023-05-21T14:35:00.419Z,3.72
2023-05-21T14:37:05.506Z,3.65
2023-05-21T14:39:08.441Z,4.10
2023-05-21T14:41:11.512Z,4.68
2023-05-21T14:43:14.417Z,3.80
2023-05-21T14:45:19.192Z,3.88
2023-05-21T14:47:22.542Z,3.75
2023-05-21T14:49:25.594Z,3.83
2023-05-21T14:51:28.643Z,3.80
2023-05-21T14:53:33.062Z,3.78
2023-05-21T14:55:37.334Z,3.72
2023-05-21T14:57:40.712Z,4.40
2023-05-21T14:59:43.592Z,3.92
2023-05-21T15:01:46.931Z,3.85
2023-05-21T15:03:50.066Z,4.18
2023-05-21T15:05:53.229Z,3.80
2023-05-21T15:07:56.491Z,4.25
2023-05-21T15:10:01.004Z,3.55
2023-05-21T15:12:04.311Z,4.53
2023-05-21T15:14:07.296Z,3.72
2023-05-21T15:16:10.289Z,3.80
2023-05-21T15:18:13.456Z,3.70
2023-05-21T15:20:16.882Z,3.72
2023-05-21T15:22:20.073Z,3.42
2023-05-21T15:24:23.043Z,3.85
2023-05-21T15:26:27.515Z,4.20
2023-05-21T15:28:30.472Z,4.23
2023-05-21T15:30:33.436Z,3.78
2023-05-21T15:32:36.665Z,4.25
2023-05-21T15:34:39.697Z,4.40
2023-05-21T15:36:42.689Z,3.53
2023-05-21T15:38:45.982Z,4.00
2023-05-21T15:40:48.904Z,4.65
2023-05-21T15:42:53.664Z,3.78
2023-05-21T15:44:56.519Z,4.30
2023-05-21T15:46:59.527Z,3.90
2023-05-21T15:49:02.600Z,3.70
2023-05-21T15:51:05.796Z,3.92
2023-05-21T15:53:11.111Z,4.13
2023-05-21T15:55:14.462Z,4.03
2023-05-21T15:57:17.405Z,3.63
2023-05-21T15:59:21.985Z,4.30
2023-05-21T16:01:26.140Z,3.80
2023-05-21T16:03:29.259Z,3.88
2023-05-21T16:05:32.175Z,3.90
2023-05-21T16:07:37.055Z,3.97
2023-05-21T16:09:41.146Z,4.10
2023-05-21T16:11:49.134Z,4.03
2023-05-21T16:13:52.211Z,3.92
2023-05-21T16:15:56.666Z,4.28
2023-05-21T16:17:59.684Z,3.95
2023-05-21T16:20:02.645Z,3.95
2023-05-21T16:22:05.835Z,4.10
2023-05-21T16:24:09.242Z,3.97
2023-05-21T16:26:12.196Z,3.80
2023-05-21T16:28:15.276Z,3.95
2023-05-21T16:30:18.423Z,3.92
2023-05-21T16:32:23.168Z,4.35
2023-05-21T16:34:26.633Z,4.22
2023-05-21T16:36:29.668Z,4.00
2023-05-21T16:38:32.714Z,3.78
2023-05-21T16:40:35.763Z,4.22
2023-05-21T16:42:40.098Z,4.35
2023-05-21T16:44:43.135Z,4.30
2023-05-21T16:46:46.041Z,4.18
2023-05-21T16:48:50.523Z,3.78
2023-05-21T16:50:53.833Z,4.28
2023-05-21T16:52:56.825Z,4.63
2023-05-21T16:54:59.764Z,4.13
2023-05-21T16:57:02.723Z,3.90
2023-05-21T16:59:05.828Z,4.32
2023-05-21T17:01:08.989Z,4.60
2023-05-21T17:03:13.051Z,4.43
2023-05-21T17:05:17.839Z,4.60
2023-05-21T17:07:21.095Z,4.20
2023-05-21T17:09:24.268Z,3.75
2023-05-21T17:11:27.368Z,4.45
2023-05-21T17:13:30.363Z,4.47
2023-05-21T17:15:33.500Z,4.40
2023-05-21T17:17:36.582Z,5.63
2023-05-21T17:19:39.464Z,4.88
2023-05-21T17:21:43.997Z,5.25
2023-05-21T17:23:46.880Z,5.60
2023-05-21T17:25:50.135Z,5.32
2023-05-21T17:27:53.568Z,5.18
2023-05-21T17:29:57.565Z,5.43
2023-05-21T17:32:00.898Z,5.20
2023-05-21T17:34:04.113Z,5.28
2023-05-21T17:36:07.310Z,4.68
2023-05-21T17:38:12.291Z,5.05
2023-05-21T17:40:15.497Z,5.30
2023-05-21T17:42:18.898Z,4.95
2023-05-21T17:44:22.052Z,4.63
2023-05-21T17:46:24.927Z,4.85
2023-05-21T17:48:27.944Z,5.10
2023-05-21T17:50:30.934Z,4.90
2023-05-21T17:52:33.761Z,5.18
2023-05-21T17:54:38.111Z,5.30
2023-05-21T17:56:41.033Z,4.72
2023-05-21T17:58:43.893Z,4.82
2023-05-21T18:00:46.782Z,5.22
2023-05-21T18:02:49.691Z,4.53
2023-05-21T18:04:52.774Z,5.28
2023-05-21T18:06:56.206Z,4.57
2023-05-21T18:08:59.385Z,4.93
2023-05-21T18:11:03.931Z,5.00
2023-05-21T18:13:06.832Z,4.60
2023-05-21T18:15:10.502Z,4.93
2023-05-21T18:17:13.503Z,4.57
2023-05-21T18:19:16.651Z,4.90
2023-05-21T18:21:19.564Z,4.85
2023-05-21T18:23:22.554Z,5.10
2023-05-21T18:25:25.362Z,4.85
2023-05-21T18:27:29.802Z,4.72
2023-05-21T18:29:32.713Z,4.55
2023-05-21T18:31:36.048Z,4.72
2023-05-21T18:33:38.971Z,5.50
2023-05-21T18:35:42.246Z,4.75
2023-05-21T18:37:47.027Z,4.85
2023-05-21T18:39:50.102Z,4.88
2023-05-21T18:42:01.639Z,5.05
2023-05-21T18:44:16.452Z,4.97
2023-05-21T18:46:19.779Z,4.43
2023-05-21T18:48:22.991Z,4.65
2023-05-21T18:50:26.063Z,5.15
2023-05-21T18:52:29.171Z,4.97
2023-05-21T18:54:32.224Z,5.47
2023-05-21T18:56:35.199Z,4.93
2023-05-21T18:58:38.951Z,4.60
2023-05-21T19:00:43.677Z,4.60
2023-05-21T19:02:47.304Z,4.45
2023-05-21T19:04:50.562Z,4.65
2023-05-21T19:06:53.434Z,4.97
2023-05-21T19:08:56.404Z,5.05
2023-05-21T19:10:59.326Z,4.53
2023-05-21T19:13:03.365Z,5.53
2023-05-21T19:15:08.564Z,5.18
2023-05-21T19:17:13.953Z,4.80
2023-05-21T19:19:17.048Z,5.25
2023-05-21T19:21:20.267Z,4.80
2023-05-21T19:23:24.962Z,4.95
2023-05-21T19:25:28.025Z,5.57
2023-05-21T19:27:30.981Z,5.43
2023-05-21T19:29:34.246Z,5.43
2023-05-21T19:31:37.556Z,4.60
2023-05-21T19:33:42.131Z,4.95
2023-05-21T19:35:45.124Z,5.30
2023-05-21T19:37:48.097Z,5.45
2023-05-21T19:39:50.896Z,5.28
2023-05-21T19:41:53.936Z,6.00
2023-05-21T19:43:56.909Z,6.32
2023-05-21T19:45:59.906Z,6.45
2023-05-21T19:48:03.271Z,6.40
2023-05-21T19:50:09.741Z,7.05
2023-05-21T19:52:12.812Z,7.65
2023-05-21T19:54:15.955Z,6.95
2023-05-21T19:56:19.078Z,7.60
2023-05-21T19:58:27.235Z,7.30
2023-05-21T20:00:30.394Z,6.15
2023-05-21T20:02:34.887Z,6.97
2023-05-21T20:04:37.898Z,7.00
2023-05-21T20:06:42.478Z,7.00
2023-05-21T20:08:45.364Z,6.75
2023-05-21T20:10:51.357Z,6.65
2023-05-21T20:12:54.803Z,7.10
2023-05-21T20:14:59.756Z,7.32
2023-05-21T20:17:02.878Z,7.13
2023-05-21T20:19:06.139Z,6.82
2023-05-21T20:21:09.189Z,6.80
2023-05-21T20:23:14.139Z,6.70
2023-05-21T20:25:17.023Z,7.07
2023-05-21T20:27:20.322Z,6.53
2023-05-21T20:29:23.703Z,6.68
2023-05-21T20:31:27.739Z,6.75
2023-05-21T20:33:32.291Z,6.85
2023-05-21T20:35:35.393Z,6.57
2023-05-21T20:37:38.571Z,7.10
2023-05-21T20:39:45.484Z,6.13
2023-05-21T20:41:48.718Z,6.85
2023-05-21T20:43:52.678Z,6.43
2023-05-21T20:46:00.056Z,6.40
2023-05-21T20:48:03.823Z,6.10
2023-05-21T20:50:07.461Z,6.07
2023-05-21T20:52:10.530Z,6.40
2023-05-21T20:54:13.464Z,5.82
2023-05-21T20:56:29.835Z,5.60
2023-05-21T20:58:43.260Z,5.97
2023-05-21T21:00:46.909Z,5.90
2023-05-21T21:02:49.991Z,5.70
2023-05-21T21:04:54.163Z,5.78
2023-05-21T21:06:57.025Z,5.88
2023-05-21T21:08:59.999Z,5.38
2023-05-21T21:11:02.983Z,5.57
2023-05-21T21:13:07.548Z,6.35
2023-05-21T21:15:10.804Z,5.50
2023-05-21T21:17:13.748Z,5.18
2023-05-21T21:19:16.586Z,5.60
2023-05-21T21:21:19.688Z,5.97
2023-05-21T21:23:25.340Z,5.45
2023-05-21T21:25:28.261Z,5.38
2023-05-21T21:27:31.312Z,5.47
2023-05-21T21:29:35.876Z,5.60
2023-05-21T21:31:38.973Z,5.35
2023-05-21T21:33:42.140Z,5.38
2023-05-21T21:35:45.105Z,5.50
2023-05-21T21:37:48.115Z,5.68
2023-05-21T21:39:51.167Z,5.25
2023-05-21T21:41:54.199Z,4.88
2023-05-21T21:43:57.324Z,5.47
2023-05-21T21:46:01.873Z,5.10
2023-05-21T21:48:05.210Z,4.90
2023-05-21T21:50:09.177Z,5.40
2023-05-21T21:52:12.572Z,5.22
2023-05-21T21:54:15.595Z,5.25
2023-05-21T21:56:18.595Z,4.82
2023-05-21T21:58:21.906Z,4.45
2023-05-21T22:00:27.021Z,5.03
2023-05-21T22:04:34.354Z,5.18
2023-05-21T22:06:39.297Z,4.75
2023-05-21T22:08:42.279Z,4.97
2023-05-21T22:10:45.847Z,5.10
2023-05-21T22:12:48.755Z,4.88
2023-05-21T22:14:51.777Z,4.75
2023-05-21T22:16:55.540Z,5.38
2023-05-21T22:19:00.240Z,5.00
2023-05-21T22:21:04.182Z,5.17
2023-05-21T22:23:07.197Z,4.47
2023-05-21T22:25:10.427Z,4.65
2023-05-21T22:27:13.595Z,5.13
2023-05-21T22:29:16.517Z,4.50
2023-05-21T22:31:19.669Z,4.93
2023-05-21T22:33:22.940Z,4.35
2023-05-21T22:35:27.399Z,4.60
2023-05-21T22:37:30.220Z,4.63
2023-05-21T22:39:33.225Z,4.82
2023-05-21T22:41:36.286Z,4.57
2023-05-21T22:43:39.293Z,4.82
2023-05-21T22:45:42.546Z,4.32
2023-05-21T22:47:45.690Z,4.78
2023-05-21T22:49:48.548Z,4.40
2023-05-21T22:51:54.634Z,4.47
2023-05-21T22:53:57.508Z,4.55
2023-05-21T22:56:00.868Z,4.25
2023-05-21T22:58:03.766Z,4.65
2023-05-21T23:00:08.097Z,4.32
2023-05-21T23:02:11.253Z,4.32
2023-05-21T23:04:15.492Z,4.95
2023-05-21T23:06:18.663Z,4.20
2023-05-21T23:08:23.109Z,4.28
2023-05-21T23:10:26.470Z,4.40
2023-05-21T23:12:29.582Z,4.65
2023-05-21T23:14:32.685Z,4.43
2023-05-21T23:16:35.677Z,4.18
2023-05-21T23:18:40.476Z,4.20
2023-05-21T23:20:44.008Z,4.50
2023-05-21T23:22:46.896Z,4.30
2023-05-21T23:24:51.740Z,4.05
2023-05-21T23:26:56.967Z,4.25
2023-05-21T23:28:59.869Z,4.60
2023-05-21T23:31:03.138Z,4.68
2023-05-21T23:33:06.901Z,3.97
2023-05-21T23:35:10.729Z,4.32
2023-05-21T23:37:13.774Z,4.32
2023-05-21T23:39:16.790Z,3.97
2023-05-21T23:41:21.393Z,3.88
2023-05-21T23:43:24.364Z,4.33
2023-05-21T23:45:27.417Z,4.10
2023-05-21T23:47:30.598Z,3.88
2023-05-21T23:49:33.677Z,4.60
2023-05-21T23:51:36.770Z,3.95
2023-05-21T23:53:39.777Z,4.22
2023-05-21T23:55:42.773Z,3.65
2023-05-21T23:57:47.121Z,4.20
2023-05-21T23:59:50.078Z,3.97
